Woodlawn, Ohio
Current Conditions -  °F | °C
As of 3:53 PM on Monday 24 Nov 2014 (Local Time) from KHAO Reporting Station
Overcast Overcast  
Wind Chill: 38°   Ceiling: 3300
Heat Index: 45°   Visibility: 10mi
Dew Point: 34°   Wind: 16mph
Humidity: 65%   Direction: 240°WSW
Pressure: 29.71"   Gusts: 25mph
Location:  39.236°N, 84.4599°W
Report Text: KHAO 242053Z AUTO 24014G22KT 10SM OVC033 07/01 A2971 RMK AO2 PK WND 24029/2006 SLP060 T00720011 51046
Loading
Personal Weather Stations






























Interactive Weather Map New forecast layout! Learn more

10-Day Weather Forecast

Advertisements
Track Severe Weather on mobile